createdAt,value
2023-04-25T00:00:03.654Z,1015.81
2023-04-25T00:05:03.357Z,1015.89
2023-04-25T00:10:03.219Z,1015.94
2023-04-25T00:15:03.171Z,1015.87
2023-04-25T00:20:03.201Z,1015.89
2023-04-25T00:25:03.107Z,1015.82
2023-04-25T00:30:03.189Z,1015.82
2023-04-25T00:35:03.274Z,1015.8
2023-04-25T00:40:05.291Z,1015.76
2023-04-25T00:45:03.099Z,1015.75
2023-04-25T00:50:03.249Z,1015.76
2023-04-25T00:55:03.240Z,1015.75
2023-04-25T01:00:03.281Z,1015.91
2023-04-25T01:05:03.185Z,1015.98
2023-04-25T01:10:03.354Z,1015.86
2023-04-25T01:15:09.575Z,1015.86
2023-04-25T01:20:03.363Z,1015.87
2023-04-25T01:25:05.369Z,1015.84
2023-04-25T01:30:03.136Z,1015.74
2023-04-25T01:35:03.111Z,1015.63
2023-04-25T01:40:03.377Z,1015.51
2023-04-25T01:45:04.126Z,1015.49
2023-04-25T01:50:03.201Z,1015.42
2023-04-25T01:55:03.143Z,1015.4
2023-04-25T02:00:03.274Z,1015.49
2023-04-25T02:05:03.184Z,1015.55
2023-04-25T02:10:03.208Z,1015.65
2023-04-25T02:15:03.134Z,1015.75
2023-04-25T02:20:03.357Z,1015.8
2023-04-25T02:25:03.020Z,1015.87
2023-04-25T02:30:03.262Z,1015.88
2023-04-25T02:35:03.012Z,1015.95
2023-04-25T02:40:03.311Z,1016.06
2023-04-25T02:45:03.132Z,1016.11
2023-04-25T02:50:03.182Z,1016.12
2023-04-25T02:55:03.051Z,1016.16
2023-04-25T03:00:03.188Z,1016.17
2023-04-25T03:05:03.297Z,1016.19
2023-04-25T03:10:03.188Z,1016.17
2023-04-25T03:15:03.225Z,1016.28
2023-04-25T03:20:03.235Z,1016.29
2023-04-25T03:25:03.034Z,1016.2
2023-04-25T03:30:03.322Z,1016.16
2023-04-25T03:35:03.096Z,1016.19
2023-04-25T03:40:03.202Z,1016.14
2023-04-25T03:45:03.214Z,1016.08
2023-04-25T03:50:03.268Z,1015.99
2023-04-25T03:55:03.098Z,1016.02
2023-04-25T04:00:03.250Z,1015.95
2023-04-25T04:05:03.296Z,1015.95
2023-04-25T04:10:03.163Z,1016.0
2023-04-25T04:15:03.065Z,1016.05
2023-04-25T04:20:03.381Z,1016.11
2023-04-25T04:25:02.992Z,1016.4
2023-04-25T04:30:03.211Z,1016.31
2023-04-25T04:35:03.049Z,1016.31
2023-04-25T04:40:03.178Z,1016.2
2023-04-25T04:45:03.107Z,1016.17
2023-04-25T04:50:03.103Z,1016.18
2023-04-25T04:55:03.062Z,1016.01
2023-04-25T05:00:03.075Z,1015.96
2023-04-25T05:05:03.129Z,1015.97
2023-04-25T05:10:03.197Z,1016.12
2023-04-25T05:15:03.172Z,1016.12
2023-04-25T05:20:03.366Z,1016.3
2023-04-25T05:25:03.017Z,1016.94
2023-04-25T05:30:03.326Z,1017.41
2023-04-25T05:35:03.089Z,1017.46
2023-04-25T05:40:03.077Z,1017.59
2023-04-25T05:45:03.049Z,1017.66
2023-04-25T05:50:03.342Z,1017.73
2023-04-25T05:55:03.020Z,1017.79
2023-04-25T06:00:03.259Z,1017.48
2023-04-25T06:05:03.236Z,1017.28
2023-04-25T06:10:03.168Z,1017.0
2023-04-25T06:15:04.696Z,1016.88
2023-04-25T06:20:04.607Z,1017.07
2023-04-25T06:25:03.023Z,1017.08
2023-04-25T06:30:03.267Z,1017.11
2023-04-25T06:35:03.027Z,1017.05
2023-04-25T06:40:03.095Z,1017.17
2023-04-25T06:45:03.031Z,1017.15
2023-04-25T06:50:03.137Z,1017.02
2023-04-25T06:55:03.120Z,1016.8
2023-04-25T07:00:03.101Z,1016.65
2023-04-25T07:05:03.023Z,1016.59
2023-04-25T07:10:03.210Z,1016.42
2023-04-25T07:15:03.051Z,1016.57
2023-04-25T07:20:03.181Z,1016.6
2023-04-25T07:25:03.083Z,1016.6
2023-04-25T07:30:03.122Z,1016.63
2023-04-25T07:35:03.048Z,1016.54
2023-04-25T07:40:03.125Z,1016.39
2023-04-25T07:45:03.183Z,1016.42
2023-04-25T07:50:03.195Z,1016.51
2023-04-25T07:55:02.974Z,1016.53
2023-04-25T08:00:03.166Z,1016.49
2023-04-25T08:05:03.248Z,1016.43
2023-04-25T08:10:03.259Z,1016.54
2023-04-25T08:15:03.059Z,1016.58
2023-04-25T08:20:03.166Z,1016.59
2023-04-25T08:25:03.034Z,1016.63
2023-04-25T08:30:03.457Z,1016.62
2023-04-25T08:35:03.057Z,1016.66
2023-04-25T08:40:03.168Z,1016.74
2023-04-25T08:45:04.451Z,1016.78
2023-04-25T08:50:03.211Z,1016.8
2023-04-25T08:55:03.031Z,1016.79
2023-04-25T09:00:03.189Z,1016.78
2023-04-25T09:05:03.152Z,1016.77
2023-04-25T09:10:03.167Z,1016.87
2023-04-25T09:15:02.987Z,1016.87
2023-04-25T09:20:03.175Z,1016.77
2023-04-25T09:25:03.156Z,1016.77
2023-04-25T09:30:04.275Z,1016.85
2023-04-25T09:35:03.137Z,1016.88
2023-04-25T09:40:03.094Z,1016.9
2023-04-25T09:45:03.085Z,1016.91
2023-04-25T09:50:03.164Z,1016.96
2023-04-25T09:55:03.043Z,1016.98
2023-04-25T10:00:03.246Z,1016.96
2023-04-25T10:05:03.070Z,1017.02
2023-04-25T10:10:03.183Z,1017.1
2023-04-25T10:15:03.080Z,1017.08
2023-04-25T10:20:03.133Z,1017.08
2023-04-25T10:25:03.078Z,1017.15
2023-04-25T10:30:03.160Z,1017.25
2023-04-25T10:35:02.997Z,1017.32
2023-04-25T10:40:03.146Z,1017.28
2023-04-25T10:45:03.179Z,1017.32
2023-04-25T10:50:03.117Z,1017.33
2023-04-25T10:55:03.054Z,1017.27
2023-04-25T11:00:03.233Z,1017.22
2023-04-25T11:05:03.098Z,1017.29
2023-04-25T11:10:03.250Z,1017.31
2023-04-25T11:15:03.126Z,1017.45
2023-04-25T11:20:03.149Z,1017.49
2023-04-25T11:25:03.058Z,1017.49
2023-04-25T11:30:03.370Z,1017.53
2023-04-25T11:35:02.971Z,1017.49
2023-04-25T11:40:04.271Z,1017.44
2023-04-25T11:45:03.078Z,1017.46
2023-04-25T11:50:03.199Z,1017.4
2023-04-25T11:55:03.152Z,1017.36
2023-04-25T12:00:03.629Z,1017.42
2023-04-25T12:05:12.022Z,1017.49
2023-04-25T12:10:03.232Z,1017.49
2023-04-25T12:15:03.176Z,1017.58
2023-04-25T12:20:03.204Z,1017.57
2023-04-25T12:25:03.045Z,1017.57
2023-04-25T12:30:03.247Z,1017.46
2023-04-25T12:35:03.089Z,1017.43
2023-04-25T12:40:03.274Z,1017.47
2023-04-25T12:45:03.071Z,1017.43
2023-04-25T12:50:03.249Z,1017.43
2023-04-25T12:55:02.990Z,1017.43
2023-04-25T13:00:03.239Z,1017.43
2023-04-25T13:05:03.015Z,1017.45
2023-04-25T13:10:03.108Z,1017.47
2023-04-25T13:15:03.048Z,1017.49
2023-04-25T13:20:03.201Z,1017.45
2023-04-25T13:25:04.100Z,1017.29
2023-04-25T13:30:03.216Z,1017.31
2023-04-25T13:35:05.383Z,1017.29
2023-04-25T13:40:03.112Z,1017.21
2023-04-25T13:45:03.125Z,1017.11
2023-04-25T13:50:03.278Z,1017.05
2023-04-25T13:55:04.036Z,1017.01
2023-04-25T14:00:03.142Z,1016.93
2023-04-25T14:05:03.236Z,1016.79
2023-04-25T14:10:03.182Z,1016.75
2023-04-25T14:15:03.056Z,1016.74
2023-04-25T14:20:03.238Z,1016.63
2023-04-25T14:25:03.020Z,1016.6
2023-04-25T14:30:03.313Z,1016.6
2023-04-25T14:35:03.029Z,1016.58
2023-04-25T14:40:03.210Z,1016.57
2023-04-25T14:45:03.075Z,1016.57
2023-04-25T14:50:03.271Z,1016.51
2023-04-25T14:55:03.247Z,1016.41
2023-04-25T15:00:03.190Z,1016.43
2023-04-25T15:05:03.126Z,1016.35
2023-04-25T15:10:03.150Z,1016.38
2023-04-25T15:15:03.120Z,1016.45
2023-04-25T15:20:03.147Z,1016.38
2023-04-25T15:25:03.134Z,1016.29
2023-04-25T15:30:03.221Z,1016.17
2023-04-25T15:35:03.021Z,1015.96
2023-04-25T15:40:03.201Z,1015.72
2023-04-25T15:45:03.020Z,1015.47
2023-04-25T15:50:03.175Z,1015.23
2023-04-25T15:55:03.108Z,1015.08
2023-04-25T16:00:08.255Z,1015.05
2023-04-25T16:05:03.225Z,1015.02
2023-04-25T16:10:03.245Z,1015.11
2023-04-25T16:15:03.217Z,1015.19
2023-04-25T16:20:03.309Z,1015.28
2023-04-25T16:25:03.105Z,1015.36
2023-04-25T16:30:04.002Z,1015.31
2023-04-25T16:35:03.086Z,1015.14
2023-04-25T16:40:04.801Z,1015.04
2023-04-25T16:45:03.196Z,1014.89
2023-04-25T16:50:03.354Z,1014.6
2023-04-25T16:55:03.208Z,1014.52
2023-04-25T17:00:03.326Z,1014.45
2023-04-25T17:05:03.235Z,1014.32
2023-04-25T17:10:03.321Z,1014.21
2023-04-25T17:15:03.074Z,1014.09
2023-04-25T17:20:03.228Z,1014.01
2023-04-25T17:25:03.172Z,1014.06
2023-04-25T17:30:03.303Z,1014.1
2023-04-25T17:35:03.183Z,1014.08
2023-04-25T17:40:03.290Z,1013.98
2023-04-25T17:45:03.110Z,1013.88
2023-04-25T17:50:03.176Z,1013.76
2023-04-25T17:55:03.018Z,1013.7
2023-04-25T18:00:05.223Z,1013.55
2023-04-25T18:05:03.115Z,1013.45
2023-04-25T18:10:03.249Z,1013.31
2023-04-25T18:15:03.054Z,1013.15
2023-04-25T18:20:03.192Z,1013.12
2023-04-25T18:25:03.140Z,1013.16
2023-04-25T18:30:03.294Z,1013.28
2023-04-25T18:35:03.132Z,1013.3
2023-04-25T18:40:04.896Z,1013.23
2023-04-25T18:45:03.019Z,1013.12
2023-04-25T18:50:03.237Z,1013.12
2023-04-25T18:55:03.184Z,1013.1
2023-04-25T19:00:03.218Z,1013.06
2023-04-25T19:05:03.210Z,1013.01
2023-04-25T19:10:04.292Z,1012.86
2023-04-25T19:15:03.104Z,1012.65
2023-04-25T19:20:03.276Z,1012.52
2023-04-25T19:25:10.239Z,1012.42
2023-04-25T19:30:03.254Z,1012.34
2023-04-25T19:35:04.212Z,1012.39
2023-04-25T19:40:03.583Z,1012.48
2023-04-25T19:45:03.150Z,1012.54
2023-04-25T19:50:03.212Z,1012.54
2023-04-25T19:55:03.081Z,1012.54
2023-04-25T20:00:03.223Z,1012.43
2023-04-25T20:05:03.201Z,1012.48
2023-04-25T20:10:03.220Z,1012.48
2023-04-25T20:15:03.085Z,1012.45
2023-04-25T20:20:03.168Z,1012.41
2023-04-25T20:25:03.037Z,1012.28
2023-04-25T20:30:03.356Z,1012.28
2023-04-25T20:35:03.124Z,1012.28
2023-04-25T20:40:03.249Z,1012.23
2023-04-25T20:45:03.097Z,1012.19
2023-04-25T20:50:03.157Z,1012.27
2023-04-25T20:55:03.098Z,1012.38
2023-04-25T21:00:03.314Z,1012.31
2023-04-25T21:05:03.056Z,1012.21
2023-04-25T21:10:03.340Z,1012.09
2023-04-25T21:15:03.090Z,1011.92
2023-04-25T21:20:04.232Z,1011.92
2023-04-25T21:25:03.199Z,1012.0
2023-04-25T21:30:03.285Z,1012.28
2023-04-25T21:35:03.064Z,1011.99
2023-04-25T21:40:03.301Z,1011.67
2023-04-25T21:45:03.111Z,1011.87
2023-04-25T21:50:03.306Z,1012.11
2023-04-25T21:55:03.170Z,1012.3
2023-04-25T22:00:03.226Z,1012.66
2023-04-25T22:05:03.066Z,1012.54
2023-04-25T22:10:03.238Z,1012.51
2023-04-25T22:15:08.206Z,1012.94
2023-04-25T22:20:03.248Z,1013.52
2023-04-25T22:25:03.206Z,1013.78
2023-04-25T22:30:03.242Z,1014.03
2023-04-25T22:35:08.259Z,1014.05
2023-04-25T22:40:03.125Z,1014.47
2023-04-25T22:45:03.225Z,1014.72
2023-04-25T22:50:03.320Z,1014.81
2023-04-25T22:55:03.174Z,1014.96
2023-04-25T23:00:03.295Z,1015.01
2023-04-25T23:05:04.740Z,1015.28
2023-04-25T23:10:03.351Z,1015.41
2023-04-25T23:15:03.153Z,1015.39
2023-04-25T23:20:03.275Z,1015.43
2023-04-25T23:25:06.272Z,1015.3
2023-04-25T23:30:03.420Z,1015.25
2023-04-25T23:35:03.152Z,1015.29
2023-04-25T23:40:03.320Z,1015.2
2023-04-25T23:45:03.143Z,1014.97
2023-04-25T23:50:04.606Z,1014.75
2023-04-25T23:55:03.232Z,1014.38
